sensor_id;sensor_type;location;lat;lon;timestamp;temperature;humidity
3842;DHT22;1936;47.074;15.336;2022-09-03T00:00:00;11.40;99.90
3842;DHT22;1936;47.074;15.336;2022-09-03T00:02:08;11.40;99.90
3842;DHT22;1936;47.074;15.336;2022-09-03T00:04:21;11.30;99.90
3842;DHT22;1936;47.074;15.336;2022-09-03T00:06:32;11.30;99.90
3842;DHT22;1936;47.074;15.336;2022-09-03T00:08:41;11.30;99.90
3842;DHT22;1936;47.074;15.336;2022-09-03T00:10:51;11.30;99.90
3842;DHT22;1936;47.074;15.336;2022-09-03T00:12:59;11.30;99.90
3842;DHT22;1936;47.074;15.336;2022-09-03T00:15:08;11.30;99.90
3842;DHT22;1936;47.074;15.336;2022-09-03T00:17:16;11.30;99.90
3842;DHT22;1936;47.074;15.336;2022-09-03T00:19:23;11.20;99.90
3842;DHT22;1936;47.074;15.336;2022-09-03T00:21:35;11.20;99.90
3842;DHT22;1936;47.074;15.336;2022-09-03T00:23:41;11.20;99.90
3842;DHT22;1936;47.074;15.336;2022-09-03T00:25:49;11.20;99.90
3842;DHT22;1936;47.074;15.336;2022-09-03T00:27:56;11.10;99.90
3842;DHT22;1936;47.074;15.336;2022-09-03T00:30:03;11.10;99.90
3842;DHT22;1936;47.074;15.336;2022-09-03T00:32:14;11.00;99.90
3842;DHT22;1936;47.074;15.336;2022-09-03T00:34:23;11.00;99.90
3842;DHT22;1936;47.074;15.336;2022-09-03T00:36:34;11.00;99.90
3842;DHT22;1936;47.074;15.336;2022-09-03T00:38:43;11.00;99.90
3842;DHT22;1936;47.074;15.336;2022-09-03T00:40:55;11.00;99.90
3842;DHT22;1936;47.074;15.336;2022-09-03T00:43:14;11.00;99.90
3842;DHT22;1936;47.074;15.336;2022-09-03T00:45:27;11.00;99.90
3842;DHT22;1936;47.074;15.336;2022-09-03T00:47:44;10.90;99.90
3842;DHT22;1936;47.074;15.336;2022-09-03T00:50:02;11.00;99.90
3842;DHT22;1936;47.074;15.336;2022-09-03T00:52:15;10.90;99.90
3842;DHT22;1936;47.074;15.336;2022-09-03T00:54:30;10.90;99.90
3842;DHT22;1936;47.074;15.336;2022-09-03T00:56:41;10.90;99.90
3842;DHT22;1936;47.074;15.336;2022-09-03T00:59:13;10.90;99.90
3842;DHT22;1936;47.074;15.336;2022-09-03T01:01:21;10.90;99.90
3842;DHT22;1936;47.074;15.336;2022-09-03T01:03:34;10.90;99.90
3842;DHT22;1936;47.074;15.336;2022-09-03T01:05:47;10.80;99.90
3842;DHT22;1936;47.074;15.336;2022-09-03T01:08:00;10.80;99.90
3842;DHT22;1936;47.074;15.336;2022-09-03T01:10:15;10.80;99.90
3842;DHT22;1936;47.074;15.336;2022-09-03T01:12:35;10.80;99.90
3842;DHT22;1936;47.074;15.336;2022-09-03T01:14:47;10.80;99.90
3842;DHT22;1936;47.074;15.336;2022-09-03T01:16:57;10.80;99.90
3842;DHT22;1936;47.074;15.336;2022-09-03T01:19:16;10.70;99.90
3842;DHT22;1936;47.074;15.336;2022-09-03T01:21:45;10.70;99.90
3842;DHT22;1936;47.074;15.336;2022-09-03T01:26:47;10.70;99.90
3842;DHT22;1936;47.074;15.336;2022-09-03T01:29:03;10.60;99.90
3842;DHT22;1936;47.074;15.336;2022-09-03T01:31:20;10.60;99.90
3842;DHT22;1936;47.074;15.336;2022-09-03T01:33:32;10.60;99.90
3842;DHT22;1936;47.074;15.336;2022-09-03T01:35:42;10.50;99.90
3842;DHT22;1936;47.074;15.336;2022-09-03T01:37:59;10.50;99.90
3842;DHT22;1936;47.074;15.336;2022-09-03T01:40:09;10.60;99.90
3842;DHT22;1936;47.074;15.336;2022-09-03T01:42:21;10.50;99.90
3842;DHT22;1936;47.074;15.336;2022-09-03T01:44:32;10.50;99.90
3842;DHT22;1936;47.074;15.336;2022-09-03T01:46:41;10.50;99.90
3842;DHT22;1936;47.074;15.336;2022-09-03T01:48:52;10.50;99.90
3842;DHT22;1936;47.074;15.336;2022-09-03T01:51:03;10.50;99.90
3842;DHT22;1936;47.074;15.336;2022-09-03T01:53:15;10.50;99.90
3842;DHT22;1936;47.074;15.336;2022-09-03T01:55:29;10.50;99.90
3842;DHT22;1936;47.074;15.336;2022-09-03T01:57:48;10.50;99.90
3842;DHT22;1936;47.074;15.336;2022-09-03T02:00:03;10.50;99.90
3842;DHT22;1936;47.074;15.336;2022-09-03T02:02:13;10.50;99.90
3842;DHT22;1936;47.074;15.336;2022-09-03T02:04:22;10.40;99.90
3842;DHT22;1936;47.074;15.336;2022-09-03T02:06:26;10.40;99.90
3842;DHT22;1936;47.074;15.336;2022-09-03T02:08:33;10.40;99.90
3842;DHT22;1936;47.074;15.336;2022-09-03T02:10:40;10.40;99.90
3842;DHT22;1936;47.074;15.336;2022-09-03T02:12:48;10.40;99.90
3842;DHT22;1936;47.074;15.336;2022-09-03T02:14:54;10.40;99.90
3842;DHT22;1936;47.074;15.336;2022-09-03T02:17:01;10.40;99.90
3842;DHT22;1936;47.074;15.336;2022-09-03T02:19:07;10.40;99.90
3842;DHT22;1936;47.074;15.336;2022-09-03T02:21:15;10.40;99.90
3842;DHT22;1936;47.074;15.336;2022-09-03T02:23:21;10.30;99.90
3842;DHT22;1936;47.074;15.336;2022-09-03T02:25:31;10.30;99.90
3842;DHT22;1936;47.074;15.336;2022-09-03T02:27:36;10.30;99.90
3842;DHT22;1936;47.074;15.336;2022-09-03T02:29:39;10.30;99.90
3842;DHT22;1936;47.074;15.336;2022-09-03T02:31:43;10.20;99.90
3842;DHT22;1936;47.074;15.336;2022-09-03T02:33:48;10.20;99.90
3842;DHT22;1936;47.074;15.336;2022-09-03T02:35:53;10.20;99.90
3842;DHT22;1936;47.074;15.336;2022-09-03T02:37:56;10.20;99.90
3842;DHT22;1936;47.074;15.336;2022-09-03T02:39:59;10.10;99.90
3842;DHT22;1936;47.074;15.336;2022-09-03T02:42:06;10.10;99.90
3842;DHT22;1936;47.074;15.336;2022-09-03T02:44:15;10.20;99.90
3842;DHT22;1936;47.074;15.336;2022-09-03T02:46:31;10.10;99.90
3842;DHT22;1936;47.074;15.336;2022-09-03T02:48:34;10.10;99.90
3842;DHT22;1936;47.074;15.336;2022-09-03T02:50:41;10.10;99.90
3842;DHT22;1936;47.074;15.336;2022-09-03T02:52:45;10.10;99.90
3842;DHT22;1936;47.074;15.336;2022-09-03T02:54:48;10.10;99.90
3842;DHT22;1936;47.074;15.336;2022-09-03T02:56:51;10.00;99.90
3842;DHT22;1936;47.074;15.336;2022-09-03T02:58:55;10.00;99.90
3842;DHT22;1936;47.074;15.336;2022-09-03T03:00:59;10.00;99.90
3842;DHT22;1936;47.074;15.336;2022-09-03T03:03:02;10.00;99.90
3842;DHT22;1936;47.074;15.336;2022-09-03T03:05:06;10.00;99.90
3842;DHT22;1936;47.074;15.336;2022-09-03T03:07:13;9.90;99.90
3842;DHT22;1936;47.074;15.336;2022-09-03T03:11:20;10.00;99.90
3842;DHT22;1936;47.074;15.336;2022-09-03T03:13:24;10.00;99.90
3842;DHT22;1936;47.074;15.336;2022-09-03T03:15:27;10.00;99.90
3842;DHT22;1936;47.074;15.336;2022-09-03T03:17:30;9.90;99.90
3842;DHT22;1936;47.074;15.336;2022-09-03T03:19:34;9.90;99.90
3842;DHT22;1936;47.074;15.336;2022-09-03T03:21:37;10.00;99.90
3842;DHT22;1936;47.074;15.336;2022-09-03T03:23:42;10.10;99.90
3842;DHT22;1936;47.074;15.336;2022-09-03T03:27:50;10.00;99.90
3842;DHT22;1936;47.074;15.336;2022-09-03T03:29:53;10.00;99.90
3842;DHT22;1936;47.074;15.336;2022-09-03T03:31:58;9.90;99.90
3842;DHT22;1936;47.074;15.336;2022-09-03T03:34:02;9.90;99.90
3842;DHT22;1936;47.074;15.336;2022-09-03T03:36:06;9.90;99.90
3842;DHT22;1936;47.074;15.336;2022-09-03T03:38:09;9.90;99.90
3842;DHT22;1936;47.074;15.336;2022-09-03T03:40:14;9.90;99.90
3842;DHT22;1936;47.074;15.336;2022-09-03T03:42:18;9.90;99.90
3842;DHT22;1936;47.074;15.336;2022-09-03T03:44:21;9.80;99.90
3842;DHT22;1936;47.074;15.336;2022-09-03T03:46:28;9.80;99.90
3842;DHT22;1936;47.074;15.336;2022-09-03T03:48:32;9.80;99.90
3842;DHT22;1936;47.074;15.336;2022-09-03T03:50:36;9.80;99.90
3842;DHT22;1936;47.074;15.336;2022-09-03T03:52:39;9.80;99.90
3842;DHT22;1936;47.074;15.336;2022-09-03T03:54:42;9.80;99.90
3842;DHT22;1936;47.074;15.336;2022-09-03T03:56:47;9.80;99.90
3842;DHT22;1936;47.074;15.336;2022-09-03T03:58:58;9.80;99.90
3842;DHT22;1936;47.074;15.336;2022-09-03T04:01:05;9.80;99.90
3842;DHT22;1936;47.074;15.336;2022-09-03T04:03:09;9.70;99.90
3842;DHT22;1936;47.074;15.336;2022-09-03T04:05:13;9.80;99.90
3842;DHT22;1936;47.074;15.336;2022-09-03T04:07:18;9.70;99.90
3842;DHT22;1936;47.074;15.336;2022-09-03T04:09:22;9.80;99.90
3842;DHT22;1936;47.074;15.336;2022-09-03T04:11:25;9.70;99.90
3842;DHT22;1936;47.074;15.336;2022-09-03T04:13:31;9.70;99.90
3842;DHT22;1936;47.074;15.336;2022-09-03T04:15:35;9.70;99.90
3842;DHT22;1936;47.074;15.336;2022-09-03T04:19:42;9.70;99.90
3842;DHT22;1936;47.074;15.336;2022-09-03T04:21:49;9.70;99.90
3842;DHT22;1936;47.074;15.336;2022-09-03T04:23:53;9.80;99.90
3842;DHT22;1936;47.074;15.336;2022-09-03T04:25:56;9.70;99.90
3842;DHT22;1936;47.074;15.336;2022-09-03T04:28:00;9.70;99.90
3842;DHT22;1936;47.074;15.336;2022-09-03T04:30:07;9.70;99.90
3842;DHT22;1936;47.074;15.336;2022-09-03T04:32:11;9.70;99.90
3842;DHT22;1936;47.074;15.336;2022-09-03T04:34:31;9.80;99.90
3842;DHT22;1936;47.074;15.336;2022-09-03T04:36:35;9.80;99.90
3842;DHT22;1936;47.074;15.336;2022-09-03T04:38:40;9.80;99.90
3842;DHT22;1936;47.074;15.336;2022-09-03T04:45:00;9.90;99.90
3842;DHT22;1936;47.074;15.336;2022-09-03T04:47:05;10.00;99.90
3842;DHT22;1936;47.074;15.336;2022-09-03T04:49:08;10.00;99.90
3842;DHT22;1936;47.074;15.336;2022-09-03T04:51:13;10.00;99.90
3842;DHT22;1936;47.074;15.336;2022-09-03T04:53:17;10.00;99.90
3842;DHT22;1936;47.074;15.336;2022-09-03T04:55:23;10.00;99.90
3842;DHT22;1936;47.074;15.336;2022-09-03T04:57:26;10.10;99.90
3842;DHT22;1936;47.074;15.336;2022-09-03T05:01:39;10.30;99.90
3842;DHT22;1936;47.074;15.336;2022-09-03T05:03:44;10.40;99.90
3842;DHT22;1936;47.074;15.336;2022-09-03T05:05:54;10.60;99.90
3842;DHT22;1936;47.074;15.336;2022-09-03T05:07:58;10.60;99.90
3842;DHT22;1936;47.074;15.336;2022-09-03T05:12:07;10.80;99.90
3842;DHT22;1936;47.074;15.336;2022-09-03T05:16:16;11.00;99.90
3842;DHT22;1936;47.074;15.336;2022-09-03T05:18:20;11.20;99.90
3842;DHT22;1936;47.074;15.336;2022-09-03T05:20:25;11.20;99.90
3842;DHT22;1936;47.074;15.336;2022-09-03T05:22:30;11.20;99.90
3842;DHT22;1936;47.074;15.336;2022-09-03T05:24:33;11.40;99.90
3842;DHT22;1936;47.074;15.336;2022-09-03T05:26:38;11.50;99.90
3842;DHT22;1936;47.074;15.336;2022-09-03T05:28:42;11.50;99.90
3842;DHT22;1936;47.074;15.336;2022-09-03T05:30:45;11.60;99.90
3842;DHT22;1936;47.074;15.336;2022-09-03T05:32:49;11.70;99.90
3842;DHT22;1936;47.074;15.336;2022-09-03T05:34:53;11.60;99.90
3842;DHT22;1936;47.074;15.336;2022-09-03T05:36:58;11.60;99.90
3842;DHT22;1936;47.074;15.336;2022-09-03T05:39:02;11.70;99.90
3842;DHT22;1936;47.074;15.336;2022-09-03T05:41:07;11.80;99.90
3842;DHT22;1936;47.074;15.336;2022-09-03T05:43:11;11.70;99.90
3842;DHT22;1936;47.074;15.336;2022-09-03T05:45:14;11.60;99.90
3842;DHT22;1936;47.074;15.336;2022-09-03T05:47:18;11.60;99.90
3842;DHT22;1936;47.074;15.336;2022-09-03T05:49:21;11.70;99.90
3842;DHT22;1936;47.074;15.336;2022-09-03T05:51:25;11.90;99.90
3842;DHT22;1936;47.074;15.336;2022-09-03T05:53:31;12.30;99.90
3842;DHT22;1936;47.074;15.336;2022-09-03T05:55:36;12.60;99.90
3842;DHT22;1936;47.074;15.336;2022-09-03T05:57:39;13.20;99.90
3842;DHT22;1936;47.074;15.336;2022-09-03T05:59:44;13.50;99.90
3842;DHT22;1936;47.074;15.336;2022-09-03T06:01:48;14.30;99.90
3842;DHT22;1936;47.074;15.336;2022-09-03T06:06:02;14.60;99.90
3842;DHT22;1936;47.074;15.336;2022-09-03T06:08:05;14.70;99.90
3842;DHT22;1936;47.074;15.336;2022-09-03T06:10:15;15.00;99.90
3842;DHT22;1936;47.074;15.336;2022-09-03T06:12:24;15.00;99.90
3842;DHT22;1936;47.074;15.336;2022-09-03T06:14:27;15.40;99.90
3842;DHT22;1936;47.074;15.336;2022-09-03T06:16:32;15.50;99.90
3842;DHT22;1936;47.074;15.336;2022-09-03T06:18:35;15.90;99.90
3842;DHT22;1936;47.074;15.336;2022-09-03T06:20:38;16.40;99.90
3842;DHT22;1936;47.074;15.336;2022-09-03T06:22:42;16.40;99.90
3842;DHT22;1936;47.074;15.336;2022-09-03T06:24:50;16.40;99.90
3842;DHT22;1936;47.074;15.336;2022-09-03T06:26:54;16.50;99.90
3842;DHT22;1936;47.074;15.336;2022-09-03T06:31:03;17.00;99.90
3842;DHT22;1936;47.074;15.336;2022-09-03T06:33:07;16.80;99.90
3842;DHT22;1936;47.074;15.336;2022-09-03T06:35:10;16.90;99.90
3842;DHT22;1936;47.074;15.336;2022-09-03T06:37:13;17.10;99.90
3842;DHT22;1936;47.074;15.336;2022-09-03T06:39:16;17.30;99.90
3842;DHT22;1936;47.074;15.336;2022-09-03T06:47:35;18.70;99.90
3842;DHT22;1936;47.074;15.336;2022-09-03T06:49:38;19.10;99.90
3842;DHT22;1936;47.074;15.336;2022-09-03T06:53:47;20.90;99.90
3842;DHT22;1936;47.074;15.336;2022-09-03T06:57:57;21.50;99.90
3842;DHT22;1936;47.074;15.336;2022-09-03T07:00:03;21.80;99.90
3842;DHT22;1936;47.074;15.336;2022-09-03T07:02:06;21.80;99.90
3842;DHT22;1936;47.074;15.336;2022-09-03T07:08:18;23.00;99.90
3842;DHT22;1936;47.074;15.336;2022-09-03T07:10:22;23.10;99.90
3842;DHT22;1936;47.074;15.336;2022-09-03T07:12:25;23.40;99.50
3842;DHT22;1936;47.074;15.336;2022-09-03T07:14:29;23.80;94.60
3842;DHT22;1936;47.074;15.336;2022-09-03T07:18:41;23.80;95.80
3842;DHT22;1936;47.074;15.336;2022-09-03T07:20:45;24.60;94.10
3842;DHT22;1936;47.074;15.336;2022-09-03T07:22:48;25.10;91.10
3842;DHT22;1936;47.074;15.336;2022-09-03T07:24:52;26.30;84.30
3842;DHT22;1936;47.074;15.336;2022-09-03T07:26:55;26.40;83.70
3842;DHT22;1936;47.074;15.336;2022-09-03T07:28:59;26.20;83.50
3842;DHT22;1936;47.074;15.336;2022-09-03T07:31:04;26.40;84.90
3842;DHT22;1936;47.074;15.336;2022-09-03T07:33:09;27.10;82.00
3842;DHT22;1936;47.074;15.336;2022-09-03T07:35:12;27.40;77.80
3842;DHT22;1936;47.074;15.336;2022-09-03T07:37:16;27.90;76.30
3842;DHT22;1936;47.074;15.336;2022-09-03T07:39:20;27.20;72.70
3842;DHT22;1936;47.074;15.336;2022-09-03T07:41:24;27.20;77.90
3842;DHT22;1936;47.074;15.336;2022-09-03T07:43:35;27.60;69.70
3842;DHT22;1936;47.074;15.336;2022-09-03T07:45:40;28.70;64.10
3842;DHT22;1936;47.074;15.336;2022-09-03T07:47:47;29.20;58.40
3842;DHT22;1936;47.074;15.336;2022-09-03T07:49:52;29.60;58.40
3842;DHT22;1936;47.074;15.336;2022-09-03T07:51:56;29.10;58.30
3842;DHT22;1936;47.074;15.336;2022-09-03T07:54:00;29.50;57.00
3842;DHT22;1936;47.074;15.336;2022-09-03T07:56:07;30.20;57.30
3842;DHT22;1936;47.074;15.336;2022-09-03T07:58:10;30.00;54.50
3842;DHT22;1936;47.074;15.336;2022-09-03T08:00:15;30.40;53.80
3842;DHT22;1936;47.074;15.336;2022-09-03T08:04:22;30.20;52.20
3842;DHT22;1936;47.074;15.336;2022-09-03T08:06:28;30.70;50.90
3842;DHT22;1936;47.074;15.336;2022-09-03T08:08:32;30.80;51.70
3842;DHT22;1936;47.074;15.336;2022-09-03T08:10:36;30.90;56.80
3842;DHT22;1936;47.074;15.336;2022-09-03T08:12:40;31.50;51.30
3842;DHT22;1936;47.074;15.336;2022-09-03T08:14:44;32.10;48.90
3842;DHT22;1936;47.074;15.336;2022-09-03T08:18:50;32.70;50.80
3842;DHT22;1936;47.074;15.336;2022-09-03T08:20:54;33.00;47.60
3842;DHT22;1936;47.074;15.336;2022-09-03T08:23:03;33.00;48.90
3842;DHT22;1936;47.074;15.336;2022-09-03T08:25:06;32.00;48.50
3842;DHT22;1936;47.074;15.336;2022-09-03T08:31:27;32.00;49.00
3842;DHT22;1936;47.074;15.336;2022-09-03T08:33:32;32.50;48.50
3842;DHT22;1936;47.074;15.336;2022-09-03T08:35:41;32.80;48.30
3842;DHT22;1936;47.074;15.336;2022-09-03T08:37:45;33.00;48.00
3842;DHT22;1936;47.074;15.336;2022-09-03T08:39:56;32.80;50.10
3842;DHT22;1936;47.074;15.336;2022-09-03T08:44:29;33.80;45.50
3842;DHT22;1936;47.074;15.336;2022-09-03T08:48:44;32.90;46.80
3842;DHT22;1936;47.074;15.336;2022-09-03T08:55:22;33.60;45.50
3842;DHT22;1936;47.074;15.336;2022-09-03T08:57:27;33.30;42.90
3842;DHT22;1936;47.074;15.336;2022-09-03T08:59:34;34.50;45.00
3842;DHT22;1936;47.074;15.336;2022-09-03T09:01:46;34.70;41.70
3842;DHT22;1936;47.074;15.336;2022-09-03T09:06:20;33.40;46.40
3842;DHT22;1936;47.074;15.336;2022-09-03T09:08:33;33.50;45.60
3842;DHT22;1936;47.074;15.336;2022-09-03T09:10:43;34.20;45.40
3842;DHT22;1936;47.074;15.336;2022-09-03T09:13:07;34.90;42.60
3842;DHT22;1936;47.074;15.336;2022-09-03T09:15:22;34.60;46.40
3842;DHT22;1936;47.074;15.336;2022-09-03T09:17:40;33.50;47.70
3842;DHT22;1936;47.074;15.336;2022-09-03T09:19:56;32.90;45.40
3842;DHT22;1936;47.074;15.336;2022-09-03T09:22:08;32.80;46.20
3842;DHT22;1936;47.074;15.336;2022-09-03T09:24:22;33.70;47.00
3842;DHT22;1936;47.074;15.336;2022-09-03T09:26:28;34.00;45.70
3842;DHT22;1936;47.074;15.336;2022-09-03T09:28:34;33.90;45.10
3842;DHT22;1936;47.074;15.336;2022-09-03T09:30:39;34.20;44.20
3842;DHT22;1936;47.074;15.336;2022-09-03T09:32:42;34.40;42.40
3842;DHT22;1936;47.074;15.336;2022-09-03T10:13:15;35.20;42.70
3842;DHT22;1936;47.074;15.336;2022-09-03T10:15:27;30.70;47.00
3842;DHT22;1936;47.074;15.336;2022-09-03T10:17:50;30.40;50.80
3842;DHT22;1936;47.074;15.336;2022-09-03T10:19:59;29.90;49.60
3842;DHT22;1936;47.074;15.336;2022-09-03T10:22:24;29.30;53.00
3842;DHT22;1936;47.074;15.336;2022-09-03T10:24:39;30.10;52.70
3842;DHT22;1936;47.074;15.336;2022-09-03T10:26:44;31.10;49.80
3842;DHT22;1936;47.074;15.336;2022-09-03T10:28:50;30.70;49.20
3842;DHT22;1936;47.074;15.336;2022-09-03T10:31:14;31.10;51.70
3842;DHT22;1936;47.074;15.336;2022-09-03T10:33:25;32.00;50.50
3842;DHT22;1936;47.074;15.336;2022-09-03T10:35:35;32.00;47.10
3842;DHT22;1936;47.074;15.336;2022-09-03T10:37:48;31.40;52.20
3842;DHT22;1936;47.074;15.336;2022-09-03T10:42:15;34.50;43.40
3842;DHT22;1936;47.074;15.336;2022-09-03T10:44:33;34.50;44.20
3842;DHT22;1936;47.074;15.336;2022-09-03T10:46:55;34.00;44.50
3842;DHT22;1936;47.074;15.336;2022-09-03T10:49:19;33.40;44.40
3842;DHT22;1936;47.074;15.336;2022-09-03T10:51:31;33.20;44.80
3842;DHT22;1936;47.074;15.336;2022-09-03T10:55:57;33.30;43.30
3842;DHT22;1936;47.074;15.336;2022-09-03T10:58:17;33.30;41.80
3842;DHT22;1936;47.074;15.336;2022-09-03T11:00:27;33.80;44.40
3842;DHT22;1936;47.074;15.336;2022-09-03T11:07:26;33.80;40.70
3842;DHT22;1936;47.074;15.336;2022-09-03T11:09:36;33.60;42.70
3842;DHT22;1936;47.074;15.336;2022-09-03T11:11:44;33.40;43.00
3842;DHT22;1936;47.074;15.336;2022-09-03T11:13:55;33.90;44.40
3842;DHT22;1936;47.074;15.336;2022-09-03T11:16:03;34.10;48.30
3842;DHT22;1936;47.074;15.336;2022-09-03T11:18:15;33.80;45.00
3842;DHT22;1936;47.074;15.336;2022-09-03T11:20:24;33.50;45.60
3842;DHT22;1936;47.074;15.336;2022-09-03T11:22:28;33.00;47.20
3842;DHT22;1936;47.074;15.336;2022-09-03T11:24:34;33.20;44.80
3842;DHT22;1936;47.074;15.336;2022-09-03T11:26:44;33.40;48.00
3842;DHT22;1936;47.074;15.336;2022-09-03T11:28:55;33.60;44.90
3842;DHT22;1936;47.074;15.336;2022-09-03T11:33:18;34.20;44.60
3842;DHT22;1936;47.074;15.336;2022-09-03T11:37:32;34.00;42.00
3842;DHT22;1936;47.074;15.336;2022-09-03T11:39:55;33.30;43.90
3842;DHT22;1936;47.074;15.336;2022-09-03T11:42:01;33.40;42.70
3842;DHT22;1936;47.074;15.336;2022-09-03T11:44:16;32.80;45.60
3842;DHT22;1936;47.074;15.336;2022-09-03T11:46:28;32.50;46.10
3842;DHT22;1936;47.074;15.336;2022-09-03T11:50:51;32.80;47.30
3842;DHT22;1936;47.074;15.336;2022-09-03T11:53:08;32.90;44.20
3842;DHT22;1936;47.074;15.336;2022-09-03T11:55:23;31.60;48.20
3842;DHT22;1936;47.074;15.336;2022-09-03T11:57:29;32.00;49.20
3842;DHT22;1936;47.074;15.336;2022-09-03T11:59:32;33.30;44.40
3842;DHT22;1936;47.074;15.336;2022-09-03T12:01:36;32.30;44.10
3842;DHT22;1936;47.074;15.336;2022-09-03T12:03:42;32.10;48.20
3842;DHT22;1936;47.074;15.336;2022-09-03T12:06:03;32.80;47.60
3842;DHT22;1936;47.074;15.336;2022-09-03T12:11:10;33.20;47.30
3842;DHT22;1936;47.074;15.336;2022-09-03T12:15:59;32.40;44.30
3842;DHT22;1936;47.074;15.336;2022-09-03T12:20:27;32.80;45.10
3842;DHT22;1936;47.074;15.336;2022-09-03T12:22:35;32.30;49.00
3842;DHT22;1936;47.074;15.336;2022-09-03T12:24:39;32.50;46.90
3842;DHT22;1936;47.074;15.336;2022-09-03T12:26:45;32.10;48.00
3842;DHT22;1936;47.074;15.336;2022-09-03T12:28:50;32.70;49.10
3842;DHT22;1936;47.074;15.336;2022-09-03T12:31:05;33.30;44.80
3842;DHT22;1936;47.074;15.336;2022-09-03T12:33:22;32.70;46.00
3842;DHT22;1936;47.074;15.336;2022-09-03T12:35:25;32.60;49.20
3842;DHT22;1936;47.074;15.336;2022-09-03T12:37:52;32.50;48.20
3842;DHT22;1936;47.074;15.336;2022-09-03T12:40:18;32.30;50.50
3842;DHT22;1936;47.074;15.336;2022-09-03T12:42:25;32.40;47.90
3842;DHT22;1936;47.074;15.336;2022-09-03T12:46:33;31.30;49.30
3842;DHT22;1936;47.074;15.336;2022-09-03T12:48:36;31.80;49.70
3842;DHT22;1936;47.074;15.336;2022-09-03T12:53:00;32.00;47.20
3842;DHT22;1936;47.074;15.336;2022-09-03T12:55:07;32.00;47.30
3842;DHT22;1936;47.074;15.336;2022-09-03T12:57:20;32.00;49.70
3842;DHT22;1936;47.074;15.336;2022-09-03T12:59:26;30.40;50.70
3842;DHT22;1936;47.074;15.336;2022-09-03T13:01:33;29.70;51.10
3842;DHT22;1936;47.074;15.336;2022-09-03T13:03:44;28.80;53.50
3842;DHT22;1936;47.074;15.336;2022-09-03T13:05:53;28.30;52.90
3842;DHT22;1936;47.074;15.336;2022-09-03T13:08:01;28.00;53.70
3842;DHT22;1936;47.074;15.336;2022-09-03T13:10:19;27.50;56.00
3842;DHT22;1936;47.074;15.336;2022-09-03T13:12:30;27.60;52.60
3842;DHT22;1936;47.074;15.336;2022-09-03T13:14:42;27.30;57.30
3842;DHT22;1936;47.074;15.336;2022-09-03T13:17:08;27.40;56.80
3842;DHT22;1936;47.074;15.336;2022-09-03T13:19:18;27.70;55.10
3842;DHT22;1936;47.074;15.336;2022-09-03T13:21:34;27.50;53.10
3842;DHT22;1936;47.074;15.336;2022-09-03T13:24:11;27.30;57.70
3842;DHT22;1936;47.074;15.336;2022-09-03T13:26:24;27.30;55.30
3842;DHT22;1936;47.074;15.336;2022-09-03T13:28:42;27.20;55.10
3842;DHT22;1936;47.074;15.336;2022-09-03T13:30:54;27.70;56.50
3842;DHT22;1936;47.074;15.336;2022-09-03T13:33:01;27.90;56.20
3842;DHT22;1936;47.074;15.336;2022-09-03T13:35:11;28.10;54.50
3842;DHT22;1936;47.074;15.336;2022-09-03T13:37:23;28.30;56.50
3842;DHT22;1936;47.074;15.336;2022-09-03T13:39:34;28.60;52.50
3842;DHT22;1936;47.074;15.336;2022-09-03T13:41:44;28.50;54.20
3842;DHT22;1936;47.074;15.336;2022-09-03T13:43:53;28.40;54.70
3842;DHT22;1936;47.074;15.336;2022-09-03T13:46:02;28.20;53.80
3842;DHT22;1936;47.074;15.336;2022-09-03T13:48:13;27.90;54.40
3842;DHT22;1936;47.074;15.336;2022-09-03T13:50:41;27.90;57.80
3842;DHT22;1936;47.074;15.336;2022-09-03T13:52:49;28.00;57.70
3842;DHT22;1936;47.074;15.336;2022-09-03T13:55:05;27.80;56.40
3842;DHT22;1936;47.074;15.336;2022-09-03T13:57:26;27.70;59.70
3842;DHT22;1936;47.074;15.336;2022-09-03T13:59:38;27.10;56.40
3842;DHT22;1936;47.074;15.336;2022-09-03T14:01:57;26.90;59.70
3842;DHT22;1936;47.074;15.336;2022-09-03T14:04:01;26.30;60.40
3842;DHT22;1936;47.074;15.336;2022-09-03T14:06:10;26.00;61.50
3842;DHT22;1936;47.074;15.336;2022-09-03T14:08:23;25.90;63.10
3842;DHT22;1936;47.074;15.336;2022-09-03T14:10:37;25.70;62.10
3842;DHT22;1936;47.074;15.336;2022-09-03T14:12:48;26.00;59.70
3842;DHT22;1936;47.074;15.336;2022-09-03T14:14:55;26.40;62.90
3842;DHT22;1936;47.074;15.336;2022-09-03T14:17:09;26.50;59.60
3842;DHT22;1936;47.074;15.336;2022-09-03T14:19:18;26.50;64.60
3842;DHT22;1936;47.074;15.336;2022-09-03T14:21:27;26.50;61.10
3842;DHT22;1936;47.074;15.336;2022-09-03T14:23:39;26.40;59.00
3842;DHT22;1936;47.074;15.336;2022-09-03T14:25:52;26.30;60.60
3842;DHT22;1936;47.074;15.336;2022-09-03T14:28:12;26.30;57.50
3842;DHT22;1936;47.074;15.336;2022-09-03T14:30:24;26.00;62.30
3842;DHT22;1936;47.074;15.336;2022-09-03T14:32:36;25.80;62.40
3842;DHT22;1936;47.074;15.336;2022-09-03T14:35:11;25.70;64.80
3842;DHT22;1936;47.074;15.336;2022-09-03T14:37:29;25.50;60.10
3842;DHT22;1936;47.074;15.336;2022-09-03T14:39:45;25.40;64.30
3842;DHT22;1936;47.074;15.336;2022-09-03T14:42:13;25.50;66.70
3842;DHT22;1936;47.074;15.336;2022-09-03T14:44:32;25.70;62.30
3842;DHT22;1936;47.074;15.336;2022-09-03T14:46:48;25.60;63.50
3842;DHT22;1936;47.074;15.336;2022-09-03T14:49:14;25.50;62.50
3842;DHT22;1936;47.074;15.336;2022-09-03T14:51:30;25.10;66.50
3842;DHT22;1936;47.074;15.336;2022-09-03T14:53:59;24.90;71.00
3842;DHT22;1936;47.074;15.336;2022-09-03T14:56:24;24.90;71.20
3842;DHT22;1936;47.074;15.336;2022-09-03T14:58:38;24.80;69.00
3842;DHT22;1936;47.074;15.336;2022-09-03T15:00:51;25.10;68.50
3842;DHT22;1936;47.074;15.336;2022-09-03T15:03:23;25.30;65.60
3842;DHT22;1936;47.074;15.336;2022-09-03T15:05:57;25.10;64.70
3842;DHT22;1936;47.074;15.336;2022-09-03T15:08:10;25.10;64.10
3842;DHT22;1936;47.074;15.336;2022-09-03T15:10:24;25.00;64.40
3842;DHT22;1936;47.074;15.336;2022-09-03T15:12:33;24.80;67.60
3842;DHT22;1936;47.074;15.336;2022-09-03T15:14:47;24.80;64.10
3842;DHT22;1936;47.074;15.336;2022-09-03T15:16:58;24.80;67.00
3842;DHT22;1936;47.074;15.336;2022-09-03T15:19:09;24.80;67.40
3842;DHT22;1936;47.074;15.336;2022-09-03T15:21:22;24.80;72.50
3842;DHT22;1936;47.074;15.336;2022-09-03T15:23:45;24.40;71.80
3842;DHT22;1936;47.074;15.336;2022-09-03T15:26:23;24.30;73.60
3842;DHT22;1936;47.074;15.336;2022-09-03T15:28:40;24.60;75.80
3842;DHT22;1936;47.074;15.336;2022-09-03T15:30:52;24.80;77.20
3842;DHT22;1936;47.074;15.336;2022-09-03T15:33:10;24.90;78.30
3842;DHT22;1936;47.074;15.336;2022-09-03T15:35:31;24.70;73.30
3842;DHT22;1936;47.074;15.336;2022-09-03T15:37:45;24.50;83.80
3842;DHT22;1936;47.074;15.336;2022-09-03T15:40:00;24.50;79.20
3842;DHT22;1936;47.074;15.336;2022-09-03T15:42:08;24.20;83.40
3842;DHT22;1936;47.074;15.336;2022-09-03T15:44:16;23.90;83.80
3842;DHT22;1936;47.074;15.336;2022-09-03T15:46:44;23.60;85.10
3842;DHT22;1936;47.074;15.336;2022-09-03T15:48:55;23.30;89.80
3842;DHT22;1936;47.074;15.336;2022-09-03T15:51:15;23.10;90.50
3842;DHT22;1936;47.074;15.336;2022-09-03T15:53:28;23.10;91.90
3842;DHT22;1936;47.074;15.336;2022-09-03T15:55:34;23.10;92.70
3842;DHT22;1936;47.074;15.336;2022-09-03T15:57:45;22.90;96.50